createdAt,value
2022-11-05T00:00:50.620Z,0.70
2022-11-05T00:01:50.554Z,0.70
2022-11-05T00:02:50.640Z,0.80
2022-11-05T00:03:50.623Z,0.70
2022-11-05T00:04:50.601Z,0.70
2022-11-05T00:05:50.483Z,0.70
2022-11-05T00:06:50.565Z,0.70
2022-11-05T00:07:50.482Z,0.70
2022-11-05T00:08:50.524Z,0.70
2022-11-05T00:09:50.426Z,0.60
2022-11-05T00:10:50.553Z,0.60
2022-11-05T00:11:50.431Z,0.70
2022-11-05T00:12:50.400Z,0.70
2022-11-05T00:13:50.453Z,0.70
2022-11-05T00:14:50.353Z,0.60
2022-11-05T00:15:50.451Z,0.90
2022-11-05T00:16:50.372Z,0.60
2022-11-05T00:17:50.287Z,0.70
2022-11-05T00:18:50.338Z,0.70
2022-11-05T00:19:50.260Z,0.70
2022-11-05T00:20:50.300Z,0.50
2022-11-05T00:21:50.379Z,0.60
2022-11-05T00:22:50.440Z,0.70
2022-11-05T00:23:50.329Z,0.60
2022-11-05T00:24:50.509Z,0.70
2022-11-05T00:25:50.294Z,0.50
2022-11-05T00:26:52.413Z,0.60
2022-11-05T00:27:50.211Z,0.50
2022-11-05T00:28:50.290Z,0.70
2022-11-05T00:29:50.219Z,0.70
2022-11-05T00:30:50.248Z,0.60
2022-11-05T00:31:50.219Z,0.70
2022-11-05T00:32:50.255Z,0.70
2022-11-05T00:33:50.090Z,0.60
2022-11-05T00:34:50.192Z,0.60
2022-11-05T00:35:50.153Z,0.80
2022-11-05T00:36:50.180Z,0.60
2022-11-05T00:37:50.705Z,0.70
2022-11-05T00:38:50.140Z,0.60
2022-11-05T00:39:50.152Z,0.60
2022-11-05T00:40:51.096Z,0.70
2022-11-05T00:41:49.994Z,0.60
2022-11-05T00:42:50.120Z,0.80
2022-11-05T00:43:50.060Z,0.60
2022-11-05T00:44:50.115Z,0.70
2022-11-05T00:45:49.925Z,0.60
2022-11-05T00:46:50.222Z,0.50
2022-11-05T00:47:49.899Z,0.70
2022-11-05T00:48:49.980Z,0.60
2022-11-05T00:49:49.868Z,0.70
2022-11-05T00:50:49.899Z,0.70
2022-11-05T00:51:49.840Z,0.60
2022-11-05T00:53:12.239Z,0.60
2022-11-05T00:53:49.822Z,0.60
2022-11-05T00:54:51.004Z,0.70
2022-11-05T00:55:49.841Z,0.50
2022-11-05T00:56:49.885Z,0.70
2022-11-05T00:57:49.878Z,0.50
2022-11-05T00:58:49.892Z,0.80
2022-11-05T00:59:49.873Z,0.80
2022-11-05T01:00:49.906Z,0.60
2022-11-05T01:01:50.028Z,0.60
2022-11-05T01:02:49.965Z,0.60
2022-11-05T01:03:51.859Z,0.60
2022-11-05T01:04:49.714Z,0.60
2022-11-05T01:05:49.751Z,0.70
2022-11-05T01:06:50.047Z,0.60
2022-11-05T01:07:49.868Z,0.60
2022-11-05T01:08:49.756Z,0.60
2022-11-05T01:09:49.700Z,0.50
2022-11-05T01:10:49.649Z,0.70
2022-11-05T01:11:49.609Z,0.50
2022-11-05T01:12:49.845Z,0.60
2022-11-05T01:13:49.703Z,0.60
2022-11-05T01:14:49.777Z,0.60
2022-11-05T01:15:49.622Z,0.60
2022-11-05T01:16:49.600Z,0.50
2022-11-05T01:17:49.561Z,0.50
2022-11-05T01:18:49.677Z,0.70
2022-11-05T01:19:49.545Z,0.70
2022-11-05T01:20:49.509Z,0.40
2022-11-05T01:21:49.451Z,0.60
2022-11-05T01:22:50.540Z,0.50
2022-11-05T01:23:49.428Z,0.70
2022-11-05T01:24:49.490Z,0.50
2022-11-05T01:25:49.407Z,0.50
2022-11-05T01:26:49.449Z,0.50
2022-11-05T01:27:49.378Z,0.60
2022-11-05T01:28:49.503Z,0.60
2022-11-05T01:29:49.350Z,0.70
2022-11-05T01:30:49.433Z,0.40
2022-11-05T01:31:49.328Z,0.80
2022-11-05T01:32:49.387Z,0.60
2022-11-05T01:33:49.289Z,0.60
2022-11-05T01:34:49.299Z,0.60
2022-11-05T01:35:49.268Z,0.60
2022-11-05T01:36:49.371Z,0.70
2022-11-05T01:37:49.238Z,0.40
2022-11-05T01:38:50.415Z,0.60
2022-11-05T01:39:49.362Z,0.70
2022-11-05T01:40:49.415Z,0.70
2022-11-05T01:41:49.331Z,0.70
2022-11-05T01:42:49.309Z,0.60
2022-11-05T01:43:49.164Z,0.60
2022-11-05T01:44:49.168Z,0.70
2022-11-05T01:45:49.135Z,0.50
2022-11-05T01:46:49.352Z,0.60
2022-11-05T01:47:49.253Z,0.70
2022-11-05T01:48:49.387Z,0.50
2022-11-05T01:49:49.079Z,0.50
2022-11-05T01:50:49.068Z,0.60
2022-11-05T01:51:49.049Z,0.50
2022-11-05T01:52:49.127Z,0.80
2022-11-05T01:53:49.028Z,0.70
2022-11-05T01:54:49.093Z,0.80
2022-11-05T01:55:48.997Z,0.70
2022-11-05T01:56:49.048Z,0.90
2022-11-05T01:57:48.977Z,0.60
2022-11-05T01:58:49.066Z,0.60
2022-11-05T01:59:48.947Z,0.80
2022-11-05T02:00:49.039Z,0.70
2022-11-05T02:01:49.015Z,0.70
2022-11-05T02:02:49.118Z,0.70
2022-11-05T02:03:48.897Z,0.70
2022-11-05T02:04:48.910Z,0.60
2022-11-05T02:05:48.870Z,0.70
2022-11-05T02:06:48.978Z,0.70
2022-11-05T02:07:48.838Z,0.70
2022-11-05T02:08:48.939Z,0.60
2022-11-05T02:09:48.807Z,0.50
2022-11-05T02:10:48.848Z,0.60
2022-11-05T02:11:48.787Z,0.60
2022-11-05T02:12:48.917Z,0.60
2022-11-05T02:13:48.766Z,0.90
2022-11-05T02:14:48.770Z,0.60
2022-11-05T02:15:48.739Z,0.60
2022-11-05T02:16:48.787Z,0.50
2022-11-05T02:17:48.720Z,0.70
2022-11-05T02:18:49.785Z,0.80
2022-11-05T02:19:48.679Z,0.60
2022-11-05T02:20:52.144Z,0.60
2022-11-05T02:21:48.647Z,0.80
2022-11-05T02:22:48.730Z,0.70
2022-11-05T02:23:48.627Z,0.90
2022-11-05T02:24:50.747Z,0.60
2022-11-05T02:25:48.596Z,0.50
2022-11-05T02:26:48.652Z,0.70
2022-11-05T02:27:48.577Z,0.60
2022-11-05T02:28:48.667Z,0.60
2022-11-05T02:29:48.545Z,0.70
2022-11-05T02:30:48.638Z,0.60
2022-11-05T02:31:48.517Z,0.70
2022-11-05T02:32:48.597Z,0.60
2022-11-05T02:33:48.487Z,0.60
2022-11-05T02:34:48.507Z,0.60
2022-11-05T02:35:48.469Z,0.70
2022-11-05T02:36:48.578Z,0.70
2022-11-05T02:37:48.441Z,0.70
2022-11-05T02:38:48.638Z,0.50
2022-11-05T02:39:48.410Z,0.60
2022-11-05T02:40:48.447Z,0.60
2022-11-05T02:41:48.393Z,0.70
2022-11-05T02:42:48.528Z,0.70
2022-11-05T02:43:48.361Z,0.60
2022-11-05T02:44:48.382Z,0.70
2022-11-05T02:45:48.344Z,0.50
2022-11-05T02:46:48.390Z,0.70
2022-11-05T02:47:48.308Z,0.70
2022-11-05T02:48:48.364Z,0.50
2022-11-05T02:49:48.286Z,0.60
2022-11-05T02:50:48.318Z,0.70
2022-11-05T02:51:48.248Z,0.60
2022-11-05T02:52:48.338Z,0.60
2022-11-05T02:53:48.226Z,0.60
2022-11-05T02:54:48.298Z,0.70
2022-11-05T02:55:48.207Z,0.60
2022-11-05T02:56:48.263Z,0.50
2022-11-05T02:57:48.177Z,0.60
2022-11-05T02:58:48.276Z,0.70
2022-11-05T02:59:48.147Z,0.50
2022-11-05T03:00:48.242Z,0.80
2022-11-05T03:01:48.309Z,0.70
2022-11-05T03:02:48.349Z,0.60
2022-11-05T03:03:48.243Z,0.70
2022-11-05T03:04:48.131Z,0.90
2022-11-05T03:05:48.067Z,0.90
2022-11-05T03:06:48.178Z,0.90
2022-11-05T03:07:48.045Z,0.80
2022-11-05T03:08:48.135Z,0.80
2022-11-05T03:09:48.016Z,0.70
2022-11-05T03:10:49.078Z,0.90
2022-11-05T03:11:47.987Z,0.80
2022-11-05T03:12:48.017Z,0.70
2022-11-05T03:13:47.967Z,0.70
2022-11-05T03:14:47.976Z,0.90
2022-11-05T03:15:47.946Z,0.70
2022-11-05T03:16:47.991Z,0.80
2022-11-05T03:17:47.915Z,0.90
2022-11-05T03:18:47.956Z,0.90
2022-11-05T03:19:47.890Z,0.70
2022-11-05T03:20:47.923Z,1.10
2022-11-05T03:21:47.871Z,0.90
2022-11-05T03:22:47.936Z,0.90
2022-11-05T03:23:47.835Z,1.00
2022-11-05T03:24:47.905Z,0.80
2022-11-05T03:25:47.806Z,0.90
2022-11-05T03:26:47.862Z,1.00
2022-11-05T03:27:47.788Z,1.10
2022-11-05T03:28:47.884Z,0.90
2022-11-05T03:29:47.755Z,0.90
2022-11-05T03:30:47.850Z,0.90
2022-11-05T03:31:47.735Z,1.00
2022-11-05T03:32:47.805Z,1.00
2022-11-05T03:33:47.712Z,1.00
2022-11-05T03:34:47.714Z,1.00
2022-11-05T03:35:47.675Z,0.90
2022-11-05T03:36:47.787Z,1.00
2022-11-05T03:37:47.654Z,1.10
2022-11-05T03:38:47.745Z,1.00
2022-11-05T03:39:47.634Z,1.00
2022-11-05T03:40:47.654Z,1.00
2022-11-05T03:41:47.605Z,0.90
2022-11-05T03:42:48.059Z,1.10
2022-11-05T03:43:47.576Z,1.00
2022-11-05T03:44:47.582Z,1.10
2022-11-05T03:45:47.558Z,1.00
2022-11-05T03:46:47.591Z,1.10
2022-11-05T03:47:47.527Z,1.20
2022-11-05T03:48:47.635Z,1.10
2022-11-05T03:49:47.494Z,1.20
2022-11-05T03:50:47.524Z,1.20
2022-11-05T03:51:47.466Z,1.30
2022-11-05T03:52:47.543Z,1.10
2022-11-05T03:53:47.445Z,1.20
2022-11-05T03:54:47.504Z,1.30
2022-11-05T03:55:47.414Z,1.00
2022-11-05T03:56:48.484Z,1.20
2022-11-05T03:57:47.414Z,1.40
2022-11-05T03:58:47.476Z,1.20
2022-11-05T03:59:47.360Z,1.20
2022-11-05T04:00:47.444Z,1.20
2022-11-05T04:01:47.443Z,1.40
2022-11-05T04:02:47.493Z,1.20
2022-11-05T04:03:47.306Z,1.20
2022-11-05T04:04:47.323Z,1.40
2022-11-05T04:05:47.291Z,1.40
2022-11-05T04:06:47.385Z,1.40
2022-11-05T04:07:47.270Z,1.50
2022-11-05T04:08:47.343Z,1.30
2022-11-05T04:09:47.246Z,1.40
2022-11-05T04:10:47.260Z,1.50
2022-11-05T04:11:47.208Z,1.30
2022-11-05T04:12:47.334Z,1.50
2022-11-05T04:13:47.184Z,1.50
2022-11-05T04:14:47.183Z,1.20
2022-11-05T04:15:47.154Z,1.50
2022-11-05T04:16:47.202Z,1.60
2022-11-05T04:17:47.181Z,1.40
2022-11-05T04:18:47.164Z,1.40
2022-11-05T04:19:47.106Z,1.40
2022-11-05T04:20:47.124Z,1.50
2022-11-05T04:21:47.073Z,1.40
2022-11-05T04:22:47.171Z,1.70
2022-11-05T04:23:47.051Z,1.50
2022-11-05T04:24:47.104Z,1.60
2022-11-05T04:25:47.022Z,1.60
2022-11-05T04:26:47.070Z,1.70
2022-11-05T04:27:47.009Z,1.70
2022-11-05T04:28:47.082Z,1.60
2022-11-05T04:29:46.988Z,1.80
2022-11-05T04:30:47.053Z,1.60
2022-11-05T04:31:46.955Z,1.70
2022-11-05T04:32:47.011Z,1.70
2022-11-05T04:33:46.922Z,1.60
2022-11-05T04:34:47.025Z,2.00
2022-11-05T04:35:46.902Z,1.70
2022-11-05T04:36:46.992Z,1.60
2022-11-05T04:37:46.871Z,1.80
2022-11-05T04:38:46.955Z,1.70
2022-11-05T04:39:46.857Z,1.80
2022-11-05T04:40:47.891Z,1.70
2022-11-05T04:41:46.823Z,1.90
2022-11-05T04:42:46.935Z,1.80
2022-11-05T04:43:46.799Z,1.90
2022-11-05T04:44:46.892Z,1.80
2022-11-05T04:45:46.765Z,2.00
2022-11-05T04:46:46.804Z,1.90
2022-11-05T04:47:46.742Z,1.90
2022-11-05T04:48:46.765Z,2.20
2022-11-05T04:49:46.714Z,1.90
2022-11-05T04:50:46.732Z,1.80
2022-11-05T04:51:46.692Z,1.80
2022-11-05T04:52:46.741Z,2.00
2022-11-05T04:53:46.722Z,1.90
2022-11-05T04:54:46.712Z,2.20
2022-11-05T04:55:46.634Z,1.90
2022-11-05T04:56:46.673Z,1.80
2022-11-05T04:57:46.613Z,2.00
2022-11-05T04:58:47.710Z,2.10
2022-11-05T04:59:46.595Z,2.00
2022-11-05T05:00:46.840Z,1.80
2022-11-05T05:01:46.588Z,1.90
2022-11-05T05:02:46.623Z,2.00
2022-11-05T05:03:46.542Z,1.90
2022-11-05T05:04:46.631Z,1.80
2022-11-05T05:05:46.502Z,1.80
2022-11-05T05:06:46.593Z,2.00
2022-11-05T05:07:46.474Z,1.70
2022-11-05T05:08:46.561Z,2.00
2022-11-05T05:09:46.461Z,2.00
2022-11-05T05:10:46.470Z,1.80
2022-11-05T05:11:46.431Z,1.60
2022-11-05T05:12:46.533Z,2.00
2022-11-05T05:13:46.401Z,1.80
2022-11-05T05:14:46.493Z,1.70
2022-11-05T05:15:46.380Z,1.70
2022-11-05T05:16:46.406Z,1.90
2022-11-05T05:17:46.351Z,1.90
2022-11-05T05:18:46.678Z,2.10
2022-11-05T05:19:46.324Z,1.60
2022-11-05T05:20:46.331Z,2.10
2022-11-05T05:21:46.300Z,2.10
2022-11-05T05:22:46.349Z,2.00
2022-11-05T05:23:46.272Z,1.80
2022-11-05T05:24:51.483Z,2.00
2022-11-05T05:25:47.251Z,2.10
2022-11-05T05:26:46.280Z,2.00
2022-11-05T05:27:46.221Z,1.80
2022-11-05T05:28:46.302Z,2.10
2022-11-05T05:29:46.200Z,1.90
2022-11-05T05:30:46.261Z,1.90
2022-11-05T05:31:46.170Z,1.90
2022-11-05T05:32:46.220Z,1.90
2022-11-05T05:33:46.149Z,1.80
2022-11-05T05:34:46.232Z,2.00
2022-11-05T05:35:46.119Z,2.00
2022-11-05T05:36:46.201Z,1.90
2022-11-05T05:37:46.102Z,2.10
2022-11-05T05:38:46.160Z,1.90
2022-11-05T05:39:46.061Z,2.00
2022-11-05T05:40:46.081Z,2.00
2022-11-05T05:41:46.041Z,2.20
2022-11-05T05:42:46.142Z,1.90
2022-11-05T05:43:46.020Z,1.90
2022-11-05T05:44:46.100Z,2.00
2022-11-05T05:45:45.988Z,2.00
2022-11-05T05:46:46.010Z,1.80
2022-11-05T05:47:45.972Z,1.50
2022-11-05T05:48:46.081Z,1.70
2022-11-05T05:49:45.940Z,1.70
2022-11-05T05:50:47.178Z,1.70
2022-11-05T05:51:45.910Z,2.00
2022-11-05T05:52:45.953Z,1.90
2022-11-05T05:53:45.880Z,1.90
2022-11-05T05:54:46.034Z,1.80
2022-11-05T05:55:45.859Z,2.10
2022-11-05T05:56:46.941Z,1.90
2022-11-05T05:57:45.831Z,2.00
2022-11-05T05:58:45.898Z,1.50
2022-11-05T05:59:45.809Z,1.70
2022-11-05T06:00:46.890Z,1.80
2022-11-05T06:01:45.875Z,2.10
2022-11-05T06:02:45.888Z,1.70
2022-11-05T06:03:45.758Z,1.70
2022-11-05T06:04:45.839Z,2.00
2022-11-05T06:05:45.729Z,1.90
2022-11-05T06:06:45.804Z,1.80
2022-11-05T06:07:45.997Z,1.80
2022-11-05T06:08:45.769Z,1.80
2022-11-05T06:09:45.682Z,1.60
2022-11-05T06:10:45.841Z,1.70
2022-11-05T06:11:45.657Z,2.00
2022-11-05T06:12:45.740Z,1.90
2022-11-05T06:13:45.620Z,1.90
2022-11-05T06:14:45.701Z,1.80
2022-11-05T06:15:45.608Z,1.80
2022-11-05T06:16:45.633Z,1.80
2022-11-05T06:17:45.580Z,1.80
2022-11-05T06:18:45.690Z,2.00
2022-11-05T06:19:45.550Z,2.00
2022-11-05T06:20:45.750Z,2.00
2022-11-05T06:21:45.530Z,1.80
2022-11-05T06:22:46.637Z,1.80
2022-11-05T06:23:45.509Z,1.80
2022-11-05T06:24:45.613Z,1.80
2022-11-05T06:25:45.494Z,2.00
2022-11-05T06:26:45.819Z,1.70
2022-11-05T06:27:45.582Z,1.80
2022-11-05T06:28:47.610Z,1.90
2022-11-05T06:29:45.419Z,2.00
2022-11-05T06:30:45.528Z,2.10
2022-11-05T06:31:45.384Z,2.00
2022-11-05T06:32:45.493Z,1.90
2022-11-05T06:33:45.358Z,1.90
2022-11-05T06:34:45.519Z,1.90
2022-11-05T06:35:45.338Z,1.80
2022-11-05T06:36:45.523Z,1.80
2022-11-05T06:37:45.298Z,1.90
2022-11-05T06:38:45.397Z,1.80
2022-11-05T06:39:45.290Z,1.90
2022-11-05T06:40:45.466Z,2.00
2022-11-05T06:42:12.038Z,2.10
2022-11-05T06:42:46.287Z,2.10
2022-11-05T06:43:45.230Z,1.70
2022-11-05T06:44:45.397Z,1.80
2022-11-05T06:45:45.357Z,1.70
2022-11-05T06:46:48.581Z,1.70
2022-11-05T06:47:45.186Z,2.10
2022-11-05T06:48:45.317Z,1.90
2022-11-05T06:49:45.158Z,1.90
2022-11-05T06:50:45.305Z,1.60
2022-11-05T06:51:45.129Z,1.70
2022-11-05T06:52:45.239Z,1.60
2022-11-05T06:53:45.096Z,1.70
2022-11-05T06:54:45.347Z,1.80
2022-11-05T06:55:45.075Z,1.40
2022-11-05T06:56:45.209Z,1.80
2022-11-05T06:57:45.069Z,1.70
2022-11-05T06:58:47.554Z,1.80
2022-11-05T06:59:46.502Z,1.70
2022-11-05T07:00:48.913Z,1.60
2022-11-05T07:01:47.651Z,1.60
2022-11-05T07:02:45.450Z,1.60
2022-11-05T07:03:45.720Z,1.70
2022-11-05T07:04:46.043Z,2.00
2022-11-05T07:05:45.777Z,1.70
2022-11-05T07:06:46.914Z,1.60
2022-11-05T07:07:46.182Z,1.70
2022-11-05T07:08:46.698Z,2.10
2022-11-05T07:09:48.208Z,1.90
2022-11-05T07:10:46.910Z,1.60
2022-11-05T07:11:45.647Z,1.80
2022-11-05T07:12:47.404Z,2.00
2022-11-05T07:13:47.414Z,1.70
2022-11-05T07:14:45.946Z,1.90
2022-11-05T07:15:46.482Z,1.60
2022-11-05T07:16:49.587Z,1.60
2022-11-05T07:17:45.473Z,1.90
2022-11-05T07:18:45.280Z,1.90
2022-11-05T07:19:45.667Z,1.70
2022-11-05T07:20:49.881Z,1.90
2022-11-05T07:21:46.968Z,2.00
2022-11-05T07:22:46.195Z,2.00
2022-11-05T07:23:45.085Z,1.70
2022-11-05T07:24:46.353Z,1.80
2022-11-05T07:25:45.253Z,1.60
2022-11-05T07:26:46.228Z,1.60
2022-11-05T07:27:44.657Z,1.40
2022-11-05T07:28:44.737Z,1.60
2022-11-05T07:29:44.736Z,1.50
2022-11-05T07:30:44.728Z,1.70
2022-11-05T07:31:44.586Z,1.60
2022-11-05T07:32:46.806Z,1.70
2022-11-05T07:33:44.582Z,1.70
2022-11-05T07:34:44.767Z,1.70
2022-11-05T07:35:44.546Z,1.60
2022-11-05T07:36:44.783Z,1.70
2022-11-05T07:37:44.505Z,2.00
2022-11-05T07:38:46.623Z,1.80
2022-11-05T07:39:44.476Z,1.90
2022-11-05T07:40:45.579Z,1.70
2022-11-05T07:41:44.491Z,1.60
2022-11-05T07:42:44.641Z,2.40
2022-11-05T07:43:44.496Z,1.50
2022-11-05T07:45:53.920Z,2.00
2022-11-05T07:46:53.692Z,2.00
2022-11-05T07:47:53.885Z,1.80
2022-11-05T07:48:53.675Z,1.70
2022-11-05T07:49:53.880Z,1.90
2022-11-05T07:50:53.642Z,1.70
2022-11-05T07:51:53.707Z,2.00
2022-11-05T07:52:53.616Z,1.60
2022-11-05T07:53:53.800Z,2.00
2022-11-05T07:54:53.601Z,1.90
2022-11-05T07:55:53.820Z,1.90
2022-11-05T07:56:53.553Z,1.90
2022-11-05T07:57:55.051Z,1.80
2022-11-05T07:58:54.313Z,1.90
2022-11-05T07:59:55.957Z,1.80
2022-11-05T08:00:58.275Z,1.80
2022-11-05T08:01:55.103Z,1.80
2022-11-05T08:02:54.636Z,1.70
2022-11-05T08:03:54.079Z,1.80
2022-11-05T08:04:53.716Z,1.80
2022-11-05T08:05:54.359Z,2.00
2022-11-05T08:06:54.975Z,1.70
2022-11-05T08:07:54.296Z,1.80
2022-11-05T08:08:54.804Z,1.80
2022-11-05T08:09:54.756Z,1.70
2022-11-05T08:10:57.544Z,1.80
2022-11-05T08:11:57.355Z,2.00
2022-11-05T08:12:55.697Z,1.70
2022-11-05T08:13:54.389Z,2.10
2022-11-05T08:14:53.550Z,2.00
2022-11-05T08:15:54.273Z,2.20
2022-11-05T08:16:53.406Z,2.10
2022-11-05T08:17:53.304Z,2.10
2022-11-05T08:19:14.537Z,1.90
2022-11-05T08:19:53.268Z,2.20
2022-11-05T08:20:54.372Z,1.90
2022-11-05T08:21:53.229Z,2.10
2022-11-05T08:22:53.379Z,2.40
2022-11-05T08:23:53.243Z,1.90
2022-11-05T08:24:53.213Z,2.40
2022-11-05T08:25:53.178Z,2.00
2022-11-05T08:26:53.259Z,2.40
2022-11-05T08:27:53.155Z,2.10
2022-11-05T08:28:53.189Z,2.10
2022-11-05T08:29:53.150Z,2.00
2022-11-05T08:30:53.230Z,2.20
2022-11-05T08:31:53.098Z,1.90
2022-11-05T08:32:54.183Z,2.10
2022-11-05T08:33:54.409Z,2.00
2022-11-05T08:34:53.070Z,2.10
2022-11-05T08:35:53.215Z,2.10
2022-11-05T08:36:53.029Z,2.10
2022-11-05T08:37:53.197Z,2.20
2022-11-05T08:38:53.011Z,2.20
2022-11-05T08:39:53.029Z,2.10
2022-11-05T08:40:52.969Z,2.00
2022-11-05T08:41:54.142Z,2.80
2022-11-05T08:42:52.951Z,3.10
2022-11-05T08:43:53.100Z,4.40
2022-11-05T08:44:52.911Z,2.40
2022-11-05T08:45:53.031Z,2.50
2022-11-05T08:46:52.882Z,3.90
2022-11-05T08:47:56.293Z,2.20
2022-11-05T08:48:52.862Z,3.10
2022-11-05T08:49:52.907Z,3.40
2022-11-05T08:50:52.840Z,3.50
2022-11-05T08:51:52.939Z,3.20
2022-11-05T08:52:52.810Z,2.90
2022-11-05T08:53:52.940Z,2.40
2022-11-05T08:54:52.781Z,2.20
2022-11-05T08:55:52.913Z,2.30
2022-11-05T08:56:52.761Z,2.40
2022-11-05T08:57:52.851Z,2.10
2022-11-05T08:58:52.733Z,2.30
2022-11-05T08:59:53.863Z,2.40
2022-11-05T09:00:52.745Z,2.40
2022-11-05T09:01:53.950Z,2.60
2022-11-05T09:02:52.680Z,2.40
2022-11-05T09:03:52.853Z,2.30
2022-11-05T09:04:52.653Z,2.20
2022-11-05T09:05:52.739Z,2.30
2022-11-05T09:06:53.349Z,2.40
2022-11-05T09:07:59.423Z,2.20
2022-11-05T09:08:55.600Z,2.10
2022-11-05T09:09:56.539Z,2.10
2022-11-05T09:10:53.877Z,2.10
2022-11-05T09:12:11.647Z,2.30
2022-11-05T09:12:54.205Z,2.60
2022-11-05T09:13:56.283Z,2.60
2022-11-05T09:14:55.167Z,2.50
2022-11-05T09:15:55.046Z,2.30
2022-11-05T09:16:53.710Z,2.50
2022-11-05T09:17:52.718Z,2.40
2022-11-05T09:18:52.459Z,2.20
2022-11-05T09:19:52.569Z,2.30
2022-11-05T09:20:52.450Z,2.30
2022-11-05T09:21:52.503Z,2.30
2022-11-05T09:22:52.527Z,2.30
2022-11-05T09:23:55.861Z,2.00
2022-11-05T09:24:52.401Z,2.10
2022-11-05T09:25:52.479Z,2.40
2022-11-05T09:26:52.358Z,2.10
2022-11-05T09:27:53.528Z,2.20
2022-11-05T09:28:52.332Z,2.10
2022-11-05T09:29:52.507Z,2.20
2022-11-05T09:30:52.309Z,2.30
2022-11-05T09:31:52.383Z,2.30
2022-11-05T09:32:52.269Z,2.10
2022-11-05T09:33:54.411Z,2.40
2022-11-05T09:34:52.258Z,1.90
2022-11-05T09:35:52.403Z,2.00
2022-11-05T09:36:52.236Z,1.50
2022-11-05T09:37:55.600Z,2.10
2022-11-05T09:38:53.198Z,2.20
2022-11-05T09:39:52.319Z,2.30
2022-11-05T09:40:52.182Z,2.10
2022-11-05T09:41:53.239Z,2.00
2022-11-05T09:42:52.148Z,2.10
2022-11-05T09:43:52.289Z,2.30
2022-11-05T09:44:52.120Z,2.20
2022-11-05T09:45:53.248Z,1.90
2022-11-05T09:46:52.090Z,1.90
2022-11-05T09:47:52.319Z,1.90
2022-11-05T09:48:52.083Z,2.10
2022-11-05T09:49:52.102Z,1.90
2022-11-05T09:50:52.070Z,2.20
2022-11-05T09:51:53.558Z,1.90
2022-11-05T09:52:53.142Z,2.20
2022-11-05T09:53:54.046Z,2.00
2022-11-05T09:54:58.412Z,2.00
2022-11-05T09:55:53.213Z,1.90
2022-11-05T09:56:53.159Z,2.30
2022-11-05T09:57:53.044Z,2.00
2022-11-05T09:58:55.087Z,2.00
2022-11-05T09:59:52.097Z,2.20
2022-11-05T10:00:54.674Z,2.00
2022-11-05T10:01:54.275Z,2.00
2022-11-05T10:02:55.102Z,2.10
2022-11-05T10:03:52.776Z,2.10
2022-11-05T10:04:53.781Z,2.00
2022-11-05T10:05:55.370Z,2.10
2022-11-05T10:06:51.836Z,2.00
2022-11-05T10:07:51.938Z,2.10
2022-11-05T10:09:00.771Z,1.90
2022-11-05T10:09:51.819Z,2.40
2022-11-05T10:10:54.440Z,2.10
2022-11-05T10:11:54.351Z,1.80
2022-11-05T10:12:53.621Z,1.70
2022-11-05T10:13:51.959Z,2.20
2022-11-05T10:14:52.059Z,1.80
2022-11-05T10:15:52.720Z,2.10
2022-11-05T10:16:55.038Z,2.20
2022-11-05T10:17:51.901Z,1.90
2022-11-05T10:18:51.690Z,1.90
2022-11-05T10:19:52.129Z,2.00
2022-11-05T10:20:51.650Z,2.00
2022-11-05T10:22:06.554Z,2.00
2022-11-05T10:22:53.229Z,2.00
2022-11-05T10:23:51.819Z,1.90
2022-11-05T10:24:51.591Z,1.80
2022-11-05T10:26:12.719Z,1.90
2022-11-05T10:26:51.561Z,2.00
2022-11-05T10:27:53.684Z,2.20
2022-11-05T10:28:51.552Z,1.60
2022-11-05T10:29:51.620Z,2.10
2022-11-05T10:30:51.509Z,1.80
2022-11-05T10:31:51.582Z,1.70
2022-11-05T10:32:51.480Z,1.90
2022-11-05T10:34:12.631Z,2.30
2022-11-05T10:34:51.462Z,2.00
2022-11-05T10:35:51.520Z,2.00
2022-11-05T10:36:51.439Z,2.00
2022-11-05T10:37:51.597Z,1.70
2022-11-05T10:38:51.401Z,1.90
2022-11-05T10:39:51.552Z,1.90
2022-11-05T10:40:51.379Z,2.00
2022-11-05T10:41:51.535Z,2.10
2022-11-05T10:42:51.351Z,2.10
2022-11-05T10:44:18.553Z,1.90
2022-11-05T10:44:52.360Z,1.90
2022-11-05T10:45:51.414Z,1.90
2022-11-05T10:46:51.305Z,2.20
2022-11-05T10:47:51.440Z,1.80
2022-11-05T10:48:51.278Z,1.90
2022-11-05T10:50:15.574Z,1.80
2022-11-05T10:50:51.250Z,1.80
2022-11-05T10:51:51.408Z,2.70
2022-11-05T10:52:51.220Z,1.90
2022-11-05T10:53:51.340Z,1.60
2022-11-05T10:54:51.193Z,1.60
2022-11-05T10:55:51.332Z,2.10
2022-11-05T10:56:51.167Z,2.00
2022-11-05T10:57:51.317Z,1.90
2022-11-05T10:58:51.142Z,1.90
2022-11-05T10:59:51.250Z,1.80
2022-11-05T11:00:51.179Z,1.70
2022-11-05T11:01:51.327Z,1.90
2022-11-05T11:02:51.089Z,1.60
2022-11-05T11:03:51.136Z,1.90
2022-11-05T11:04:51.060Z,1.90
2022-11-05T11:05:51.151Z,2.00
2022-11-05T11:06:51.031Z,1.90
2022-11-05T11:07:51.140Z,1.80
2022-11-05T11:08:51.021Z,2.00
2022-11-05T11:09:51.160Z,1.80
2022-11-05T11:10:50.988Z,1.80
2022-11-05T11:11:52.083Z,1.70
2022-11-05T11:12:51.001Z,1.70
2022-11-05T11:13:51.160Z,1.70
2022-11-05T11:14:50.934Z,1.80
2022-11-05T11:15:51.034Z,1.70
2022-11-05T11:16:50.901Z,1.80
2022-11-05T11:17:50.992Z,1.80
2022-11-05T11:18:50.879Z,1.70
2022-11-05T11:19:51.061Z,1.70
2022-11-05T11:20:50.841Z,1.50
2022-11-05T11:21:50.932Z,1.90
2022-11-05T11:22:50.823Z,1.90
2022-11-05T11:23:50.872Z,1.60
2022-11-05T11:24:50.935Z,1.80
2022-11-05T11:25:50.959Z,1.70
2022-11-05T11:26:50.772Z,1.80
2022-11-05T11:27:50.943Z,1.60
2022-11-05T11:28:50.739Z,1.80
2022-11-05T11:29:50.780Z,1.50
2022-11-05T11:30:50.712Z,1.70
2022-11-05T11:31:50.853Z,1.60
2022-11-05T11:32:50.691Z,1.50
2022-11-05T11:33:50.756Z,1.70
2022-11-05T11:34:50.662Z,1.70
2022-11-05T11:35:51.820Z,1.60
2022-11-05T11:36:50.631Z,1.70
2022-11-05T11:37:50.792Z,1.70
2022-11-05T11:38:50.626Z,1.60
2022-11-05T11:39:51.679Z,1.40
2022-11-05T11:40:50.581Z,1.50
2022-11-05T11:41:50.692Z,1.60
2022-11-05T11:42:50.562Z,1.50
2022-11-05T11:43:50.674Z,1.80
2022-11-05T11:44:50.529Z,1.60
2022-11-05T11:45:50.652Z,1.70
2022-11-05T11:46:50.531Z,1.50
2022-11-05T11:47:50.694Z,1.50
2022-11-05T11:48:50.473Z,1.40
2022-11-05T11:49:50.579Z,1.60
2022-11-05T11:50:50.453Z,1.50
2022-11-05T11:51:50.562Z,1.60
2022-11-05T11:52:50.429Z,1.80
2022-11-05T11:53:50.497Z,1.50
2022-11-05T11:54:50.400Z,1.60
2022-11-05T11:55:50.582Z,1.70
2022-11-05T11:56:50.375Z,1.50
2022-11-05T11:57:50.475Z,1.60
2022-11-05T11:58:50.338Z,1.30
2022-11-05T12:00:51.619Z,1.60
2022-11-05T12:01:50.562Z,1.70
2022-11-05T12:02:50.481Z,1.30
2022-11-05T12:03:50.312Z,1.30
2022-11-05T12:04:51.330Z,1.90
2022-11-05T12:05:51.128Z,1.60
2022-11-05T12:06:52.258Z,1.70
2022-11-05T12:07:51.038Z,1.40
2022-11-05T12:09:13.450Z,1.40
2022-11-05T12:09:50.986Z,1.50
2022-11-05T12:10:51.138Z,1.30
2022-11-05T12:11:50.954Z,1.20
2022-11-05T12:12:51.158Z,1.60
2022-11-05T12:13:50.142Z,1.30
2022-11-05T12:14:50.185Z,1.50
2022-11-05T12:15:50.112Z,1.80
2022-11-05T12:16:50.187Z,1.40
2022-11-05T12:17:50.094Z,1.50
2022-11-05T12:18:50.158Z,1.20
2022-11-05T12:19:50.065Z,1.10
2022-11-05T12:20:55.340Z,1.20
2022-11-05T12:21:53.460Z,1.20
2022-11-05T12:22:52.289Z,1.10
2022-11-05T12:23:50.067Z,1.10
2022-11-05T12:24:55.988Z,1.10
2022-11-05T12:25:53.606Z,1.20
2022-11-05T12:26:53.412Z,1.20
2022-11-05T12:27:50.229Z,1.10
2022-11-05T12:29:16.503Z,1.20
2022-11-05T12:29:51.634Z,1.30
2022-11-05T12:30:49.986Z,1.30
2022-11-05T12:31:49.891Z,1.30
2022-11-05T12:32:50.210Z,1.40
2022-11-05T12:33:49.875Z,1.30
2022-11-05T12:34:49.936Z,1.30
2022-11-05T12:35:54.792Z,1.50
2022-11-05T12:36:50.850Z,1.30
2022-11-05T12:37:49.926Z,1.40
2022-11-05T12:38:49.819Z,1.40
2022-11-05T12:39:49.845Z,1.70
2022-11-05T12:40:49.787Z,1.40
2022-11-05T12:41:49.913Z,1.50
2022-11-05T12:42:49.788Z,1.50
2022-11-05T12:43:49.804Z,1.30
2022-11-05T12:44:49.731Z,1.50
2022-11-05T12:45:50.805Z,1.30
2022-11-05T12:46:49.707Z,1.50
2022-11-05T12:47:49.749Z,1.40
2022-11-05T12:48:49.673Z,1.30
2022-11-05T12:49:49.745Z,1.50
2022-11-05T12:50:49.653Z,1.50
2022-11-05T12:51:49.762Z,1.40
2022-11-05T12:52:49.634Z,1.50
2022-11-05T12:53:49.735Z,1.30
2022-11-05T12:54:49.603Z,1.60
2022-11-05T12:55:49.654Z,1.40
2022-11-05T12:56:49.573Z,1.50
2022-11-05T12:57:49.671Z,1.70
2022-11-05T12:58:49.543Z,1.50
2022-11-05T12:59:49.636Z,1.40
2022-11-05T13:00:49.563Z,1.40
2022-11-05T13:01:49.781Z,1.50
2022-11-05T13:02:49.493Z,1.50
2022-11-05T13:03:50.524Z,1.30
2022-11-05T13:04:49.464Z,1.60
2022-11-05T13:05:49.591Z,1.40
2022-11-05T13:06:49.435Z,1.50
2022-11-05T13:07:49.526Z,1.50
2022-11-05T13:08:49.407Z,1.40
2022-11-05T13:09:50.486Z,1.40
2022-11-05T13:10:49.386Z,1.40
2022-11-05T13:11:49.423Z,1.40
2022-11-05T13:12:49.365Z,1.50
2022-11-05T13:13:49.365Z,1.50
2022-11-05T13:14:49.334Z,1.60
2022-11-05T13:15:49.394Z,1.60
2022-11-05T13:16:49.305Z,1.50
2022-11-05T13:17:49.367Z,1.50
2022-11-05T13:18:49.275Z,1.40
2022-11-05T13:19:49.323Z,1.40
2022-11-05T13:20:49.255Z,1.40